Terminal Aerodrome Forecast
Issued by NWS

Home | Current Version | Previous Version | Text Only | Print | Product List | Glossary Off
Versions: 1 2 3 4 5 6 7 8 9 10 11 12 13 14 15 16 17 18

000
FTUS43 KMPX 180500
TAFRWF
TAF
KRWF 180529Z 1806/1906 18004KT 4SM BR SCT010 BKN100
     FM181000 21005KT 6SM -DZ BR SCT007 OVC050
      TEMPO 1810/1814 4SM -TSRA OVC020CB
     FM181400 23007KT P6SM SCT025 BKN040
     FM182000 27010KT P6SM VCSH BKN060
     FM190000 29005KT P6SM SCT100=

USA.gov is the U.S. government's official web portal to all federal, state and local government web resources and services.